Decoded Metar for KROX (ROSEAU MUNI in MN, USA) (IATA:ROX) | Meteo·Mobile Aviation Weather
aviador You're here:

KROX Decoded Metar

ROSEAU MUNI in MN, USA
Report Time2019-01-22 00:04:00
UTC Time2019-01-22 00:32:36
Flight Rules mvfr MVFR
Wind140° at 08 kt
W.Decomp.*RWY 16: 7.3 kt HW 3.4 kt LCW
RWY 06: 2.1 kt HW 7.7 kt RCW
W.Rank140° ranks 15
Current wind is above 140° avg. (7.3)
Visibility8047 m
Phenomena:Light Snow
Clouds:Scattered 021 Hf
Overcast 050 Hf
Expected CloudBase > 1,200 ft AGL from Temp-Dew spread
Ceiling5,000 ft
Temp-11°C (ISA -24)
Dew Point-14°C (79% RH)
AAT-17.2°C
QNH1018 hPa
Density Alt-2,067 ft
Elevation1,060 ft
Report Wrong Elevation
Raw Report
KROX 220004Z AUTO 14008KT 5SM -SN SCT021 OVC050 M11/M14 A3006 RMK
AO2=

Extra information for KROX:More info

Metar Taf Metar & Taf Last 4 Metars F.Rules Stats Wind Profile Meteogram Temp Stats Airport Information Weather charts Add Link Nearby VenuesMetar ALERT Operation Metar Decoded Social comments

AIRNAV info for KROX